Nearby METAR Reports

 

EGNV - Tees-Side, United Kingdom
Distance from station: W 8mi, 13km
Updated: 17/01/2019 10:20
Nearby showers, Few clouds
Nearby showers, Few clouds
 Wind from NNW
Wind: NNW 25 mph , 41 km/h
Temperature: 2°C
Wind Chill: -4°C
Dew Point: -3°C
Humidity: 70%
Barometer: 1010 hPa
Summary: Nearby Showers
Clouds: Few Clouds
Visibility: 6 miles , 10 km
Cloud details: Few Clouds 610 m
Few Clouds 762 m
2019/01/17 10:20 EGNV 171020Z 33022KT 9999 VCSH FEW020CB FEW025 02/M03 Q1010
EGXE - Leeming Raf, United Kingdom
Distance from station: SW 21mi, 34km
Updated: 17/01/2019 09:50
Few Clouds
Few Clouds
 Wind from NW
Wind: NW 22 mph , 35 km/h
Temperature: 3°C
Wind Chill: -3°C
Dew Point: -5°C
Humidity: 56%
Barometer: 1009 hPa
Clouds: Few Clouds
Visibility: 6 miles , 10 km
Cloud details: Few Clouds 610 m
2019/01/17 09:50 EGXE 170950Z 32019KT 9999 FEW020CB 03/M05 Q1009 BLU TEMPO 32020G30KT BLU
 
EGXZ - Topcliffe Raf, United Kingdom
Distance from station: SSW 24mi, 38km
Updated: 17/01/2019 09:50
Clear
Clear
 Wind from NW
Wind: NW 23 mph , 37 km/h
Temperature: 2°C
Wind Chill: -4°C
Dew Point: -4°C
Humidity: 65%
Barometer: 1009 hPa
Clouds: Clear
Visibility: 6 miles , 10 km
2019/01/17 09:50 EGXZ 170950Z AUTO 32020KT 9999 NCD 02/M04 Q1009
EGXD - Dishforth Raf, United Kingdom
Distance from station: SSW 29mi, 46km
Updated: 06/06/2016 10:50
NOT Current
Clear
Clear
 Wind from SSE
Wind: SSE 5 mph , 7 km/h
Temperature: 18°C
Dew Point: 11°C
Humidity: 64%
Barometer: 1023 hPa
Clouds: Clear
Visibility: 6 miles , 10 km
2016/06/06 09:50 EGXD 060950Z AUTO 16004KT 9999 // NCD 18/11 Q1023
 
EGXU - Linton-On-Ouse R, United Kingdom
Distance from station: S 33mi, 53km
Updated: 17/01/2019 09:50
Few Clouds
Few Clouds
 Wind from NNW
Wind: NNW 17 mph , 28 km/h
Temperature: 2°C
Wind Chill: -3°C
Dew Point: -4°C
Humidity: 65%
Barometer: 1009 hPa
Clouds: Few Clouds
Visibility: 6 miles , 10 km
Cloud details: Few Clouds 762 m
2019/01/17 09:50 EGXU 170950Z 33015KT 9999 FEW025CB 02/M04 Q1009 BLU TEMPO 33015G25KT BLU
EGNT - Newcastle, United Kingdom
Distance from station: NNW 39mi, 63km
Updated: 17/01/2019 09:50
Light snow, Showers, Mostly cloudy
Light snow, Showers, Mostly cloudy
 Wind from NNW
Wind: NNW 9 mph , 15 km/h
Temperature: 1°C
Wind Chill: -3°C
Dew Point: -3°C
Humidity: 75%
Barometer: 1010 hPa
Summary: Light snow, Showers
Clouds: Mostly cloudy
Visibility: 6 miles , 10 km
Cloud details: Partly cloudy 152 m
Mostly cloudy 366 m
2019/01/17 09:50 EGNT 170950Z 33008KT 300V010 9999 5000NE -SHSN SCT005 BKN012 01/M03 Q1010
 
EGNM - Leeds And Bradfo, United Kingdom
Distance from station: SSW 49mi, 79km
Updated: 17/01/2019 10:20
Few Clouds
Few Clouds
 Wind from WNW
Wind: WNW 23 mph , 37 km/h
Temperature: 1°C
Wind Chill: -6°C
Dew Point: -5°C
Humidity: 65%
Barometer: 1010 hPa
Clouds: Few Clouds
Visibility: 6 miles , 10 km
Cloud details: Few Clouds 610 m
2019/01/17 10:20 EGNM 171020Z 30020KT 9999 FEW020CB 01/M05 Q1010